Time;durP1;ratioP1;P1;durP2;ratioP2;P2;SDS_P1;SDS_P2;PMS_P1;PMS_P2;Temp;Humidity;BMP_temperature;BMP_pressure;BME280_temperature;BME280_humidity;BME280_pressure;Samples;Min_cycle;Max_cycle;Signal;HPM_P1;HPM_P2
2022/08/12 00:42:54;;;;;;;3.43;3.07;;;17.90;86.40;;;18.82;68.03;98307.41;5057387;28;21067;-78
2022/08/12 00:45:25;;;;;;;4.50;3.20;;;17.90;86.40;;;18.76;68.54;98303.03;5057446;28;20549;-77
2022/08/12 00:47:56;;;;;;;3.90;3.10;;;17.80;86.50;;;18.67;69.29;98304.44;5057348;28;20461;-78
2022/08/12 00:50:29;;;;;;;4.70;3.37;;;17.80;86.50;;;18.71;69.29;98302.97;5056407;28;20484;-78
2022/08/12 00:52:59;;;;;;;4.97;3.23;;;17.80;87.10;;;18.75;69.03;98294.28;5058946;28;20472;-78
2022/08/12 00:55:28;;;;;;;3.30;3.00;;;17.80;86.70;;;18.68;69.48;98300.75;5055056;28;20486;-77
2022/08/12 00:57:58;;;;;;;9.40;3.03;;;17.80;87.00;;;18.70;69.63;98304.78;5058847;28;20574;-77
2022/08/12 01:00:28;;;;;;;21.83;3.60;;;17.70;87.00;;;18.65;69.93;98301.22;5057753;28;20465;-77
2022/08/12 01:03:00;;;;;;;3.90;3.30;;;17.70;86.90;;;18.46;70.82;98301.34;5057079;28;20477;-78
2022/08/12 01:13:52;;;;;;;5.83;2.93;;;17.50;88.10;;;18.42;71.51;98302.81;5058299;28;20461;-78
2022/08/12 01:16:25;;;;;;;8.77;3.33;;;17.40;88.20;;;18.41;72.01;98308.34;5059660;28;21058;-77
2022/08/12 01:18:57;;;;;;;5.07;2.80;;;17.50;88.20;;;18.33;72.41;98298.88;5059216;28;21382;-77
2022/08/12 01:22:03;;;;;;;4.27;3.37;;;17.40;88.10;;;18.24;73.51;98307.41;5057754;28;21181;-78
2022/08/12 01:24:54;;;;;;;7.17;3.43;;;17.30;88.50;;;18.30;72.90;98304.66;5054343;28;20518;-78
2022/08/12 01:27:24;;;;;;;12.30;3.40;;;17.40;88.50;;;18.27;73.32;98302.47;5058626;28;20534;-78
2022/08/12 01:29:56;;;;;;;5.27;3.27;;;17.30;89.00;;;18.26;72.95;98302.69;5057728;28;20461;-78
2022/08/12 01:32:29;;;;;;;5.53;3.20;;;17.40;88.20;;;18.14;73.94;98305.34;5055977;28;21100;-78
2022/08/12 01:35:09;;;;;;;5.70;3.53;;;17.30;88.70;;;18.10;74.34;98301.53;5057950;28;20544;-78
2022/08/12 01:37:48;;;;;;;6.07;3.40;;;17.20;89.00;;;18.07;74.56;98305.44;5054810;28;20484;-78
2022/08/12 01:40:31;;;;;;;5.53;3.10;;;17.20;88.90;;;18.05;74.76;98301.41;5057965;28;20460;-78
2022/08/12 01:43:09;;;;;;;3.93;2.90;;;17.20;88.70;;;17.97;75.13;98299.91;5056481;28;20461;-78
2022/08/12 01:45:52;;;;;;;10.13;3.17;;;17.10;89.40;;;18.01;75.26;98300.25;5055677;28;20970;-78
2022/08/12 01:48:49;;;;;;;3.20;2.80;;;17.10;88.80;;;17.96;75.68;98305.41;5056927;28;20837;-77
2022/08/12 01:51:41;;;;;;;6.50;2.83;;;17.10;88.90;;;18.00;74.93;98310.03;5057781;28;20537;-78
2022/08/12 01:54:37;;;;;;;5.40;2.93;;;17.10;88.70;;;17.92;75.71;98304.25;5057233;28;20559;-78
2022/08/12 01:57:16;;;;;;;6.93;3.10;;;17.00;89.60;;;17.89;75.83;98302.06;5053116;28;20510;-78
2022/08/12 02:00:12;;;;;;;3.10;2.73;;;17.00;89.60;;;17.78;77.28;98305.50;5057685;28;20492;-77
2022/08/12 02:02:53;;;;;;;3.40;3.00;;;16.80;90.10;;;17.73;77.43;98308.03;5058750;28;20461;-78
2022/08/12 02:11:34;;;;;;;5.27;3.40;;;16.80;90.00;;;17.60;78.11;98299.22;5053133;28;20470;-78
2022/08/12 02:14:50;;;;;;;4.10;3.30;;;16.70;90.10;;;17.60;78.82;98301.88;5055310;28;20519;-78
2022/08/12 02:17:55;;;;;;;4.13;2.87;;;16.70;90.10;;;17.59;78.61;98302.94;5057347;28;20456;-78
2022/08/12 02:20:36;;;;;;;6.13;3.10;;;16.70;90.30;;;17.62;78.24;98301.66;5055595;28;20459;-78
2022/08/12 02:23:25;;;;;;;4.70;3.67;;;16.70;90.30;;;17.62;78.34;98300.84;5055061;28;21018;-78
2022/08/12 02:26:04;;;;;;;3.77;3.20;;;16.60;90.40;;;17.66;78.45;98312.59;5055180;28;20478;-77
2022/08/12 02:28:33;;;;;;;3.60;3.07;;;16.60;90.30;;;17.58;78.29;98311.06;5055471;28;21092;-78
2022/08/12 02:31:10;;;;;;;4.93;3.50;;;16.70;90.20;;;17.56;78.86;98306.00;5059711;28;20452;-78
2022/08/12 02:33:41;;;;;;;3.87;3.17;;;16.60;90.50;;;17.43;79.37;98303.50;5059122;28;20452;-77
2022/08/12 02:36:09;;;;;;;5.07;3.20;;;16.50;90.50;;;17.37;80.05;98303.59;5059925;28;20456;-77
2022/08/12 02:38:42;;;;;;;7.70;3.37;;;16.40;90.80;;;17.38;80.03;98308.69;5059268;28;20567;-78
2022/08/12 02:41:16;;;;;;;3.57;2.80;;;16.30;90.80;;;17.40;80.04;98306.59;5055136;28;20497;-78
2022/08/12 02:43:52;;;;;;;4.23;3.30;;;16.40;90.70;;;17.28;80.94;98308.41;5056526;28;20452;-77
2022/08/12 02:46:31;;;;;;;3.53;2.93;;;16.30;91.00;;;17.18;81.35;98313.38;5055353;28;20467;-78
2022/08/12 02:49:05;;;;;;;4.70;3.40;;;16.30;90.70;;;17.11;81.94;98315.34;5055358;28;20464;-77
2022/08/12 02:51:43;;;;;;;5.07;3.07;;;16.20;91.00;;;17.08;82.26;98310.47;5056687;28;20481;-78
2022/08/12 02:54:13;;;;;;;3.47;2.70;;;16.20;91.00;;;17.07;82.44;98308.88;5054919;28;20515;-78
2022/08/12 02:56:44;;;;;;;4.70;3.20;;;16.30;91.00;;;17.11;82.32;98312.69;5057218;28;20840;-78
2022/08/12 02:59:22;;;;;;;4.63;3.00;;;16.10;91.30;;;17.10;82.38;98311.06;5057481;28;20502;-77
2022/08/12 03:01:55;;;;;;;4.63;3.20;;;16.20;91.00;;;17.06;82.59;98313.34;5057800;28;20938;-77
2022/08/12 03:04:32;;;;;;;4.57;3.20;;;16.20;91.30;;;17.16;82.43;98317.28;5053430;28;20554;-77
2022/08/12 03:07:13;;;;;;;6.07;2.90;;;16.10;91.20;;;17.16;82.52;98326.03;5056051;28;20471;-77
2022/08/12 03:09:50;;;;;;;4.97;3.20;;;16.10;91.40;;;17.18;82.42;98323.97;5057456;28;20464;-83
2022/08/12 03:12:39;;;;;;;3.93;3.10;;;16.10;91.30;;;17.12;82.41;98319.56;5056278;28;20959;-77
2022/08/12 03:15:21;;;;;;;6.50;3.20;;;16.10;91.30;;;17.17;82.43;98318.91;5054136;28;20530;-77
2022/08/12 03:17:58;;;;;;;6.60;3.37;;;16.10;91.40;;;17.21;82.44;98318.25;5057343;28;20468;-77
2022/08/12 03:20:47;;;;;;;6.17;3.20;;;16.10;91.20;;;17.20;82.04;98321.91;5057718;28;20544;-77
2022/08/12 03:23:17;;;;;;;4.23;3.10;;;16.10;91.30;;;17.26;82.12;98323.66;5053363;28;21031;-80
2022/08/12 03:26:00;;;;;;;8.50;5.10;;;16.20;91.30;;;17.19;81.95;98317.66;5056833;28;20463;-78
2022/08/12 03:28:52;;;;;;;3.77;3.30;;;16.10;91.30;;;17.21;82.09;98320.09;5055921;28;20602;-79
2022/08/12 03:31:28;;;;;;;5.70;2.97;;;16.10;91.30;;;17.24;81.67;98323.09;5056960;28;20445;-77
2022/08/12 03:34:03;;;;;;;7.30;3.57;;;16.20;91.10;;;17.17;81.90;98327.66;5053181;28;20575;-77
2022/08/12 03:36:38;;;;;;;5.30;3.57;;;16.10;91.20;;;17.21;82.01;98326.19;5057938;28;20538;-77
2022/08/12 03:39:23;;;;;;;3.30;3.00;;;16.10;91.30;;;17.20;81.76;98329.03;5056892;28;20492;-77
2022/08/12 03:42:27;;;;;;;5.63;3.17;;;16.10;91.20;;;17.14;81.61;98328.09;5057043;28;20471;-77
2022/08/12 04:02:17;;;;;;;3.23;2.93;;;15.90;91.50;;;16.96;83.04;98336.84;5054068;28;20521;-77
2022/08/12 04:04:46;;;;;;;4.43;3.20;;;16.00;91.40;;;16.97;83.30;98335.00;5053292;28;20547;-77
2022/08/12 04:07:20;;;;;;;3.70;2.67;;;15.90;91.50;;;16.94;83.50;98341.53;5059412;28;21034;-76
2022/08/12 04:09:49;;;;;;;4.67;4.00;;;15.90;91.60;;;16.93;83.28;98339.94;5059784;28;20472;-78
2022/08/12 04:15:05;;;;;;;6.63;3.17;;;15.80;91.60;;;16.89;83.65;98341.41;5062194;28;20497;-77
2022/08/12 04:17:36;;;;;;;7.23;3.23;;;15.90;91.60;;;16.91;84.43;98331.41;5060565;28;20469;-77
2022/08/12 04:20:25;;;;;;;4.50;3.40;;;15.80;91.80;;;16.93;83.50;98339.13;5059050;28;20931;-76
2022/08/12 04:22:58;;;;;;;11.63;3.03;;;15.90;91.60;;;16.89;83.87;98335.28;5061122;28;20470;-77
2022/08/12 04:25:31;;;;;;;9.50;4.00;;;15.80;91.60;;;16.82;84.10;98337.19;5061086;28;20447;-77
2022/08/12 04:28:00;;;;;;;6.60;3.00;;;15.80;91.60;;;16.83;83.91;98349.38;5061103;28;20468;-77
2022/08/12 04:30:42;;;;;;;4.70;3.60;;;15.80;91.50;;;16.78;84.59;98342.13;5060655;28;20535;-77
2022/08/12 04:33:11;;;;;;;3.43;3.10;;;15.70;91.80;;;16.73;84.80;98343.81;5061029;28;20527;-77
2022/08/12 04:35:40;;;;;;;5.03;3.63;;;15.70;91.80;;;16.69;85.48;98342.63;5060463;28;20539;-77
2022/08/12 04:38:12;;;;;;;3.93;3.10;;;15.70;91.80;;;16.63;85.63;98346.13;5060193;28;20456;-77
2022/08/12 04:40:41;;;;;;;11.47;3.40;;;15.70;91.60;;;16.55;86.36;98349.84;5061223;28;20523;-77
2022/08/12 04:43:09;;;;;;;6.27;3.33;;;15.70;91.80;;;16.49;86.69;98346.22;5062230;28;20511;-77
2022/08/12 04:45:58;;;;;;;5.03;3.60;;;15.60;91.80;;;16.53;87.16;98350.03;5061799;28;20520;-78
2022/08/12 04:48:27;;;;;;;3.73;3.00;;;15.60;92.10;;;16.49;87.01;98354.13;5061726;28;20484;-77
2022/08/12 04:50:58;;;;;;;7.50;3.63;;;15.60;92.10;;;16.43;87.71;98359.47;5062638;28;20504;-77
2022/08/12 04:53:30;;;;;;;5.57;3.83;;;15.50;92.20;;;16.34;88.33;98353.69;5060592;28;20452;-77
2022/08/12 04:55:59;;;;;;;4.23;3.00;;;15.50;92.40;;;16.35;88.35;98350.00;5057180;28;20996;-77
2022/08/12 04:58:28;;;;;;;4.33;2.80;;;15.40;92.30;;;16.37;88.58;98342.69;5059093;28;20452;-78
2022/08/12 05:00:57;;;;;;;6.80;3.87;;;15.50;92.30;;;16.43;88.26;98347.09;5059343;28;20499;-78
2022/08/12 05:03:27;;;;;;;4.80;3.47;;;15.50;92.40;;;16.42;88.36;98352.56;5059523;28;20461;-77
2022/08/12 05:06:13;;;;;;;4.00;3.10;;;15.50;92.40;;;16.39;88.61;98356.47;5059588;28;20440;-77
2022/08/12 05:08:59;;;;;;;3.47;2.87;;;15.50;92.40;;;16.34;89.21;98353.69;5060439;28;20446;-77
2022/08/12 05:11:29;;;;;;;3.80;3.40;;;15.40;92.60;;;16.34;89.65;98342.31;5060228;28;20480;-77
2022/08/12 05:14:00;;;;;;;4.40;3.97;;;15.50;92.40;;;16.31;90.01;98351.47;5057600;28;20457;-77
2022/08/12 05:16:29;;;;;;;5.00;3.43;;;15.60;92.40;;;16.33;90.45;98344.13;5060770;28;20448;-77
2022/08/12 05:19:04;;;;;;;4.77;3.23;;;15.50;92.80;;;16.34;90.49;98351.03;5063891;28;20440;-77
2022/08/12 05:21:41;;;;;;;5.70;3.70;;;15.50;92.60;;;16.35;90.79;98357.91;5060084;28;20452;-77
2022/08/12 05:24:11;;;;;;;4.97;3.40;;;15.50;92.50;;;16.33;91.13;98359.16;5062736;28;20458;-77
2022/08/12 05:26:40;;;;;;;9.00;3.50;;;15.60;92.50;;;16.32;91.15;98362.81;5058080;28;20525;-77
2022/08/12 05:29:11;;;;;;;4.10;3.47;;;15.50;92.50;;;16.32;91.26;98362.81;5061155;28;21004;-77
2022/08/12 05:32:01;;;;;;;3.80;3.23;;;15.60;92.40;;;16.34;90.82;98364.25;5059652;28;20442;-77
2022/08/12 05:34:33;;;;;;;6.40;3.00;;;15.60;92.50;;;16.41;91.20;98364.19;5061965;28;20442;-77
2022/08/12 05:37:02;;;;;;;7.33;3.37;;;15.60;92.60;;;16.46;91.13;98370.41;5062317;28;20499;-77
2022/08/12 05:39:33;;;;;;;3.80;3.40;;;15.60;92.80;;;16.50;90.93;98376.06;5058648;28;20539;-77
2022/08/12 05:42:03;;;;;;;7.37;3.00;;;15.60;92.70;;;16.54;91.45;98367.50;5061547;28;20505;-77
2022/08/12 05:44:32;;;;;;;9.43;3.50;;;15.70;92.80;;;16.59;91.26;98375.59;5060576;28;20455;-77
2022/08/12 05:47:00;;;;;;;4.63;3.10;;;15.70;92.80;;;16.60;90.99;98377.22;5059651;28;20488;-77
2022/08/12 05:49:32;;;;;;;4.27;3.37;;;15.70;92.80;;;16.68;90.96;98380.63;5060820;28;20525;-77
2022/08/12 05:52:02;;;;;;;5.73;3.60;;;15.80;92.90;;;16.72;90.93;98371.25;5061980;28;20448;-77
2022/08/12 05:54:32;;;;;;;7.07;3.77;;;15.80;92.90;;;16.80;91.07;98376.25;5062556;28;20873;-77
2022/08/12 05:57:21;;;;;;;3.30;3.00;;;15.90;92.90;;;16.82;90.75;98371.53;5060955;28;20527;-77
2022/08/12 05:59:50;;;;;;;4.70;3.27;;;15.90;92.90;;;16.88;90.86;98368.84;5060763;28;21266;-77
2022/08/12 06:02:19;;;;;;;6.50;3.40;;;16.00;93.00;;;16.94;90.89;98367.13;5061790;28;20819;-77
2022/08/12 06:04:48;;;;;;;4.83;3.70;;;16.00;93.10;;;17.00;90.50;98371.56;5061427;28;20452;-77
2022/08/12 06:07:17;;;;;;;6.63;3.30;;;16.00;92.80;;;17.06;90.57;98365.38;5062444;28;20488;-77
2022/08/12 06:10:08;;;;;;;4.00;3.23;;;16.10;93.10;;;17.14;89.76;98365.09;5062237;28;20567;-77
2022/08/12 06:12:37;;;;;;;5.77;3.90;;;16.10;92.70;;;17.20;89.13;98364.22;5060281;28;20460;-77
2022/08/12 06:15:08;;;;;;;4.60;3.07;;;16.20;92.70;;;17.25;89.07;98358.28;5060304;28;20464;-77
2022/08/12 06:17:36;;;;;;;3.83;2.90;;;16.30;92.90;;;17.31;89.41;98360.03;5060475;28;21202;-77
2022/08/12 06:20:12;;;;;;;10.83;3.50;;;16.30;93.00;;;17.37;88.98;98359.13;5061023;28;20500;-77
2022/08/12 06:22:56;;;;;;;5.77;3.50;;;16.30;92.60;;;17.43;88.44;98355.59;5058877;28;20854;-77
2022/08/12 06:25:27;;;;;;;5.43;2.90;;;16.50;92.60;;;17.47;88.24;98356.75;5061193;28;20440;-77
2022/08/12 06:27:58;;;;;;;5.53;3.40;;;16.50;92.50;;;17.53;87.71;98355.84;5060911;28;20501;-77
2022/08/12 06:30:36;;;;;;;6.20;3.43;;;16.50;92.50;;;17.62;87.04;98354.56;5061674;28;20447;-77
2022/08/12 06:33:08;;;;;;;9.20;3.43;;;16.70;92.20;;;17.69;86.48;98351.81;5059988;28;20873;-77
2022/08/12 06:35:57;;;;;;;6.83;3.13;;;16.70;92.10;;;17.76;86.01;98349.91;5060591;28;20536;-77
2022/08/12 06:38:29;;;;;;;5.37;2.93;;;16.80;92.10;;;17.83;85.88;98353.25;5058508;28;20835;-77
2022/08/12 06:43:50;;;;;;;6.00;3.60;;;16.90;92.20;;;17.99;85.54;98339.38;5058769;28;20463;-77
2022/08/12 06:46:38;;;;;;;3.37;2.77;;;17.00;92.30;;;18.07;85.63;98339.06;5060870;28;20500;-77
2022/08/12 06:49:12;;;;;;;5.67;3.10;;;17.10;92.20;;;18.14;85.63;98336.28;5061061;28;20437;-77
2022/08/12 06:51:41;;;;;;;5.50;3.00;;;17.20;92.30;;;18.22;85.60;98339.44;5060072;28;20510;-77
2022/08/12 06:54:24;;;;;;;9.63;2.87;;;17.30;92.30;;;18.31;85.29;98337.22;5060374;28;20463;-77
2022/08/12 06:57:01;;;;;;;3.60;2.50;;;17.30;92.10;;;18.39;84.58;98335.06;5059896;28;20437;-77
2022/08/12 06:59:49;;;;;;;3.60;2.93;;;17.40;91.80;;;18.49;83.25;98339.78;5059619;28;20484;-78
2022/08/12 07:02:21;;;;;;;4.70;2.77;;;17.50;91.30;;;18.57;82.66;98334.97;5061260;28;20510;-77
2022/08/12 07:04:51;;;;;;;6.53;2.63;;;17.60;91.40;;;18.68;81.84;98327.25;5059812;28;20833;-77
2022/08/12 07:07:20;;;;;;;3.73;3.00;;;17.80;91.20;;;18.77;81.24;98329.31;5059402;28;20480;-77
2022/08/12 07:09:50;;;;;;;10.40;2.83;;;17.90;91.20;;;18.86;80.74;98327.13;5059017;28;20813;-77
2022/08/12 07:12:36;;;;;;;4.83;2.70;;;18.00;91.10;;;18.97;80.18;98326.28;5059570;28;20964;-78
2022/08/12 07:15:10;;;;;;;5.70;2.80;;;18.10;90.90;;;19.05;79.95;98328.59;5059071;28;21031;-78
2022/08/12 07:17:41;;;;;;;5.20;2.27;;;18.20;90.90;;;19.16;77.97;98327.72;5058779;28;20436;-77
2022/08/12 07:20:11;;;;;;;6.23;3.37;;;18.30;90.10;;;19.26;75.53;98321.84;5056982;28;20537;-77
2022/08/12 07:23:04;;;;;;;3.27;2.90;;;18.50;89.70;;;19.35;74.79;98323.88;5060573;28;20456;-77
2022/08/12 07:25:36;;;;;;;6.00;3.10;;;18.60;89.60;;;19.44;74.21;98319.03;5058415;28;20452;-77
2022/08/12 07:28:14;;;;;;;7.43;2.50;;;18.60;88.90;;;19.56;73.28;98320.59;5059060;28;20533;-77
2022/08/12 07:30:48;;;;;;;8.23;2.93;;;18.80;88.50;;;19.65;72.36;98317.53;5057781;28;20484;-77
2022/08/12 07:33:21;;;;;;;4.10;2.20;;;18.90;88.60;;;19.77;70.01;98320.97;5059010;28;20959;-77
2022/08/12 07:35:52;;;;;;;4.40;2.20;;;19.10;87.40;;;19.89;68.62;98313.72;5058902;28;20471;-77
2022/08/12 07:38:32;;;;;;;2.67;2.40;;;19.30;86.60;;;20.03;68.79;98323.00;5058518;28;20567;-78
2022/08/12 07:41:09;;;;;;;3.00;2.20;;;19.30;86.90;;;20.17;67.37;98326.94;5063793;28;20479;-77
2022/08/12 07:43:47;;;;;;;5.40;2.70;;;19.50;86.30;;;20.34;64.71;98325.13;5062147;28;20982;-77
2022/08/12 07:46:19;;;;;;;3.00;2.60;;;19.80;84.60;;;20.48;63.29;98328.25;5062573;28;20496;-77
2022/08/12 07:48:51;;;;;;;15.17;3.03;;;19.90;84.00;;;20.61;63.60;98327.13;5064469;28;20858;-78
2022/08/12 07:51:21;;;;;;;4.17;2.57;;;20.00;84.50;;;20.72;63.56;98331.53;5062459;28;20455;-78
2022/08/12 07:53:54;;;;;;;2.90;2.50;;;20.10;84.60;;;20.82;62.93;98326.34;5065558;28;20455;-77
2022/08/12 07:56:31;;;;;;;5.00;2.50;;;20.10;84.10;;;20.91;60.83;98328.34;5062837;28;20586;-78
2022/08/12 07:59:02;;;;;;;3.67;2.33;;;20.30;82.90;;;20.99;60.80;98322.59;5064583;28;20449;-77
2022/08/12 08:01:32;;;;;;;4.20;2.30;;;20.40;82.70;;;21.09;60.63;98327.22;5065108;28;20492;-78
2022/08/12 08:06:49;;;;;;;7.60;2.40;;;20.50;82.20;;;21.30;59.04;98331.78;5062914;28;20498;-78
2022/08/12 08:09:22;;;;;;;6.80;2.57;;;20.70;81.70;;;21.37;58.71;98337.72;5063600;28;21553;-78
2022/08/12 08:14:50;;;;;;;3.40;2.50;;;20.70;81.70;;;21.55;58.03;98334.69;5064977;28;20440;-78
2022/08/12 08:17:20;;;;;;;3.87;2.30;;;21.00;81.50;;;21.66;57.33;98332.94;5061133;28;20502;-78
2022/08/12 08:19:51;;;;;;;6.77;2.73;;;21.00;81.00;;;21.76;57.08;98333.06;5063238;28;20452;-77
2022/08/12 08:22:33;;;;;;;5.20;2.40;;;21.20;80.80;;;21.87;55.42;98328.63;5063955;28;20488;-78
2022/08/12 08:25:12;;;;;;;4.30;2.30;;;21.30;79.70;;;21.96;55.37;98330.63;5062347;28;20535;-78
2022/08/12 08:28:03;;;;;;;4.70;2.43;;;21.40;79.60;;;22.09;54.80;98324.06;5064922;28;20545;-77
2022/08/12 08:30:37;;;;;;;3.10;2.00;;;21.50;79.60;;;22.17;55.10;98320.94;5063985;28;20448;-78
2022/08/12 08:33:11;;;;;;;4.90;2.10;;;21.60;79.50;;;22.26;53.94;98323.91;5062934;28;20498;-78
2022/08/12 08:36:00;;;;;;;5.23;2.60;;;21.70;78.30;;;22.38;52.90;98322.69;5062988;28;20468;-78
2022/08/12 08:38:30;;;;;;;4.30;2.37;;;21.90;77.70;;;22.51;52.12;98329.44;5061938;28;20530;-78
2022/08/12 08:44:10;;;;;;;2.53;2.20;;;22.10;77.30;;;22.78;51.25;98326.69;5056943;28;20872;-77
2022/08/12 08:46:42;;;;;;;5.60;2.30;;;22.30;76.60;;;22.86;51.14;98329.69;5058507;28;20494;-77
2022/08/12 08:49:14;;;;;;;3.73;1.90;;;22.30;76.50;;;22.94;51.14;98325.75;5060154;28;20440;-78
2022/08/12 08:51:43;;;;;;;3.27;2.07;;;22.40;76.60;;;22.99;50.44;98325.75;5055156;28;20460;-78
2022/08/12 08:54:12;;;;;;;5.50;2.43;;;22.40;76.10;;;23.10;49.16;98327.41;5059913;28;20898;-77
2022/08/12 08:56:45;;;;;;;5.73;2.10;;;22.60;75.00;;;23.20;49.19;98318.63;5060173;28;20460;-78
2022/08/12 08:59:14;;;;;;;6.27;3.13;;;22.70;75.00;;;23.27;48.90;98317.31;5060012;28;20477;-78
2022/08/12 09:01:47;;;;;;;4.03;2.27;;;22.80;75.00;;;23.34;49.23;98325.88;5059161;28;21030;-78
2022/08/12 09:04:16;;;;;;;8.60;2.33;;;22.80;75.20;;;23.44;48.38;98320.59;5059976;28;20448;-78
2022/08/12 09:07:05;;;;;;;2.77;1.70;;;23.00;74.50;;;23.52;48.13;98325.44;5060605;28;20446;-78
2022/08/12 09:09:51;;;;;;;3.80;1.93;;;23.00;74.10;;;23.60;47.40;98329.47;5062205;28;20448;-78
2022/08/12 09:15:30;;;;;;;2.60;2.03;;;23.20;73.50;;;23.77;47.57;98323.91;5064160;28;20548;-78
2022/08/12 09:18:09;;;;;;;2.57;2.00;;;23.30;73.80;;;23.84;47.16;98317.22;5063568;28;20447;-78
2022/08/12 09:20:40;;;;;;;4.87;2.53;;;23.30;73.40;;;23.92;47.11;98321.22;5060968;28;20443;-78
2022/08/12 09:23:12;;;;;;;3.50;2.30;;;23.40;73.60;;;23.93;46.21;98309.47;5064072;28;20571;-77
2022/08/12 09:26:01;;;;;;;2.30;1.83;;;23.30;72.30;;;23.95;46.22;98318.03;5061703;28;20531;-77
2022/08/12 09:28:50;;;;;;;4.43;2.10;;;23.20;72.70;;;23.99;46.04;98308.41;5060983;28;20476;-78
2022/08/12 09:31:21;;;;;;;3.53;2.10;;;23.40;72.60;;;24.03;45.43;98301.47;5063684;28;20491;-78
2022/08/12 09:34:13;;;;;;;4.47;2.00;;;23.50;71.90;;;24.11;45.82;98298.25;5061781;28;20532;-78
2022/08/12 09:37:00;;;;;;;2.17;1.97;;;23.60;72.30;;;24.17;45.60;98296.41;5061254;28;20473;-78
2022/08/12 09:39:46;;;;;;;4.37;2.30;;;23.60;72.10;;;24.19;45.30;98295.09;5062025;28;20536;-78
2022/08/12 09:45:46;;;;;;;2.23;1.80;;;23.60;71.60;;;24.26;43.70;98284.13;5054538;28;20438;-78
2022/08/12 09:48:35;;;;;;;2.57;2.23;;;23.70;70.00;;;24.27;43.53;98280.34;5054954;28;20524;-78
2022/08/12 09:51:08;;;;;;;5.03;1.80;;;23.70;69.70;;;24.30;42.57;98293.19;5058790;28;20790;-78
2022/08/12 09:53:50;;;;;;;3.60;1.70;;;23.80;68.40;;;24.34;42.82;98291.56;5057793;28;20550;-77
2022/08/12 09:56:40;;;;;;;5.47;2.43;;;23.80;69.00;;;24.36;43.01;98281.44;5057392;28;21026;-78
2022/08/12 09:59:29;;;;;;;6.70;2.00;;;23.80;69.10;;;24.41;42.82;98276.88;5057440;28;20447;-78
2022/08/12 10:02:18;;;;;;;5.60;2.00;;;23.80;68.90;;;24.46;42.77;98274.19;5057272;28;20484;-78
2022/08/12 10:05:08;;;;;;;4.07;2.10;;;23.90;69.20;;;24.52;42.81;98265.09;5057256;28;20445;-77
2022/08/12 10:07:46;;;;;;;4.13;2.00;;;24.00;69.00;;;24.61;42.39;98269.88;5058012;28;20534;-78
2022/08/12 10:10:15;;;;;;;4.80;2.27;;;24.10;68.60;;;24.67;41.96;98264.25;5059319;28;20468;-77
2022/08/12 10:16:03;;;;;;;3.13;1.93;;;24.10;67.60;;;24.78;40.99;98265.78;5057415;28;20550;-77
2022/08/12 10:18:36;;;;;;;10.83;1.90;;;24.30;67.30;;;24.83;39.99;98256.97;5056649;28;20445;-78
2022/08/12 10:21:23;;;;;;;6.80;1.70;;;24.40;66.20;;;24.89;40.53;98262.03;5059410;28;20543;-78
2022/08/12 10:24:08;;;;;;;2.10;1.40;;;24.40;66.50;;;24.95;40.42;98249.44;5058997;28;20460;-78
2022/08/12 10:29:38;;;;;;;2.43;1.90;;;24.40;66.70;;;24.98;41.07;98241.69;5060709;28;20875;-78
2022/08/12 10:32:26;;;;;;;2.77;1.90;;;24.50;67.10;;;25.14;39.77;98237.03;5060192;28;20530;-78
2022/08/12 10:35:15;;;;;;;6.80;2.07;;;24.60;65.90;;;25.18;40.01;98237.28;5060875;28;20465;-77
2022/08/12 10:37:45;;;;;;;6.17;1.77;;;24.60;66.20;;;25.17;40.00;98223.09;5061357;28;20980;-77
2022/08/12 10:43:39;;;;;;;4.67;1.90;;;24.70;66.40;;;25.22;40.12;98223.06;5060325;28;20502;-78
2022/08/12 10:43:41;;;;;;;2.63;1.70;;;24.80;65.90;;;25.26;39.80;98213.41;5061720;28;20492;-78
2022/08/12 10:46:25;;;;;;;5.07;1.77;;;24.80;65.70;;;25.31;39.61;98216.03;5060108;28;20441;-77
2022/08/12 10:49:00;;;;;;;1.80;1.50;;;24.80;65.70;;;25.39;39.13;98211.97;5060441;28;20440;-77
2022/08/12 10:51:50;;;;;;;2.40;1.90;;;24.90;65.40;;;25.45;39.11;98218.91;5060355;28;20535;-78
2022/08/12 10:54:41;;;;;;;3.80;1.77;;;24.90;65.30;;;25.48;39.65;98216.47;5060248;28;20479;-77
2022/08/12 10:57:12;;;;;;;2.20;1.67;;;24.90;65.90;;;25.51;40.33;98213.25;5061285;28;20470;-78
2022/08/12 11:00:00;;;;;;;5.20;2.20;;;24.90;66.80;;;25.47;39.60;98214.06;5061657;28;20463;-78
2022/08/12 11:02:53;;;;;;;2.70;1.87;;;24.80;66.20;;;25.50;39.72;98219.72;5062007;28;20553;-78
2022/08/12 11:05:43;;;;;;;2.37;1.73;;;24.90;66.30;;;25.47;39.57;98204.16;5059059;28;20482;-78
2022/08/12 11:08:38;;;;;;;2.77;1.63;;;24.80;65.80;;;25.48;40.16;98208.44;5060052;28;20483;-78
2022/08/12 11:11:16;;;;;;;3.50;1.77;;;24.80;66.50;;;25.56;39.66;98208.94;5060294;28;20467;-78
2022/08/12 11:14:07;;;;;;;4.80;2.00;;;24.90;65.80;;;25.62;38.50;98205.13;5060992;28;20530;-78
2022/08/12 11:16:57;;;;;;;2.03;1.70;;;25.00;64.50;;;25.68;38.89;98209.41;5062998;28;20471;-78
2022/08/12 11:19:45;;;;;;;7.63;1.83;;;25.10;64.60;;;25.65;38.76;98193.88;5064158;28;20511;-78
2022/08/12 11:22:15;;;;;;;7.50;2.00;;;25.00;64.70;;;25.67;39.05;98186.34;5063591;28;20490;-78
2022/08/12 11:24:51;;;;;;;3.47;2.00;;;25.00;65.70;;;25.77;38.16;98187.06;5065255;28;20440;-78
2022/08/12 11:27:23;;;;;;;2.30;1.83;;;25.20;64.70;;;25.83;38.99;98190.50;5064050;28;20460;-77
2022/08/12 11:29:53;;;;;;;7.40;1.70;;;25.30;64.80;;;25.94;38.36;98192.81;5061144;28;20494;-78
2022/08/12 11:32:34;;;;;;;7.17;2.43;;;25.40;64.10;;;26.01;38.12;98162.97;5062207;28;20451;-78
2022/08/12 11:35:08;;;;;;;4.07;1.90;;;25.40;64.20;;;26.06;37.99;98178.22;5061848;28;21017;-78
2022/08/12 11:37:40;;;;;;;2.70;2.00;;;25.50;64.10;;;26.16;37.80;98186.97;5061308;28;20448;-78
2022/08/12 11:40:27;;;;;;;4.20;1.83;;;25.70;63.60;;;26.18;37.60;98182.13;5063452;28;20487;-78
2022/08/12 11:42:59;;;;;;;4.60;1.77;;;25.70;63.50;;;26.23;37.45;98182.09;5062823;28;20495;-78
2022/08/12 11:45:49;;;;;;;4.43;1.50;;;25.70;63.90;;;26.30;36.96;98187.91;5062685;28;20938;-77
2022/08/12 11:48:24;;;;;;;2.17;1.60;;;25.80;62.60;;;26.34;37.44;98188.16;5064392;28;20487;-77
2022/08/12 11:50:55;;;;;;;2.07;1.50;;;25.80;62.90;;;26.35;36.70;98177.13;5062943;28;20507;-78
2022/08/12 11:53:23;;;;;;;2.20;1.60;;;25.90;62.30;;;26.35;37.25;98182.47;5061439;28;20464;-78
2022/08/12 11:56:12;;;;;;;3.73;1.87;;;25.80;62.60;;;26.33;36.61;98173.94;5064128;28;20463;-78
2022/08/12 11:58:42;;;;;;;1.80;1.70;;;25.60;62.40;;;26.29;36.49;98156.00;5064578;28;20818;-77
2022/08/12 12:01:32;;;;;;;2.83;1.97;;;25.60;61.70;;;26.30;36.12;98171.84;5062890;28;20551;-77
2022/08/12 12:04:20;;;;;;;4.83;1.70;;;25.60;62.20;;;26.35;36.92;98168.28;5062064;28;20486;-78
2022/08/12 12:06:59;;;;;;;5.00;3.20;;;25.70;63.10;;;26.41;37.20;98175.19;5062205;28;20532;-78
2022/08/12 12:09:39;;;;;;;6.83;1.93;;;25.70;63.00;;;26.42;37.02;98155.31;5062285;28;20440;-78
2022/08/12 12:12:23;;;;;;;1.90;1.60;;;25.70;62.30;;;26.46;36.00;98156.34;5063866;28;20448;-78
2022/08/12 12:14:52;;;;;;;3.13;2.10;;;25.80;61.30;;;26.51;36.34;98165.16;5063369;28;20492;-77
2022/08/12 12:17:26;;;;;;;9.43;1.80;;;26.00;61.60;;;26.53;36.87;98172.88;5064209;28;20951;-78
2022/08/12 12:20:09;;;;;;;4.40;1.80;;;25.90;62.30;;;26.57;36.09;98171.25;5060902;28;20842;-78
2022/08/12 12:22:42;;;;;;;3.47;1.90;;;26.00;61.70;;;26.61;35.83;98164.22;5061842;28;20457;-77
2022/08/12 12:25:13;;;;;;;2.30;1.80;;;26.00;61.40;;;26.65;36.30;98159.06;5063040;28;20544;-78
2022/08/12 12:27:51;;;;;;;1.93;1.60;;;26.00;62.10;;;26.65;36.43;98165.25;5062870;28;20480;-78
2022/08/12 12:30:34;;;;;;;2.57;2.10;;;26.00;61.70;;;26.67;36.25;98151.53;5061445;28;20952;-77
2022/08/12 12:33:05;;;;;;;6.03;1.97;;;26.00;61.70;;;26.73;36.02;98155.72;5062772;28;20464;-78
2022/08/12 12:35:35;;;;;;;3.40;1.60;;;26.20;61.00;;;26.76;35.34;98150.56;5062006;28;20452;-78
2022/08/12 12:38:24;;;;;;;2.23;1.80;;;26.20;60.60;;;26.79;35.30;98149.22;5058173;28;20544;-78
2022/08/12 12:40:53;;;;;;;3.67;1.90;;;26.20;60.30;;;26.78;34.56;98144.94;5058577;28;20850;-78